Time;durP1;ratioP1;P1;durP2;ratioP2;P2;SDS_P1;SDS_P2;PMS_P1;PMS_P2;Temp;Humidity;BMP_temperature;BMP_pressure;BME280_temperature;BME280_humidity;BME280_pressure;Samples;Min_cycle;Max_cycle;Signal;HPM_P1;HPM_P2
2023/03/23 00:01:13;;;;;;;0.75;0.60;;;;;;;14.53;55.17;99556.03;4996936;28;20039;-90
2023/03/23 00:03:40;;;;;;;0.95;0.80;;;;;;;14.46;55.77;99546.00;4973711;28;20039;-92
2023/03/23 00:06:08;;;;;;;1.52;0.90;;;;;;;14.38;55.54;99520.75;4999112;28;20077;-91
2023/03/23 00:08:37;;;;;;;3.00;0.85;;;;;;;14.35;55.85;99530.78;4995663;28;20057;-92
2023/03/23 00:11:07;;;;;;;3.33;0.90;;;;;;;14.16;55.85;99483.41;4986081;28;20057;-88
2023/03/23 00:13:33;;;;;;;1.80;0.88;;;;;;;14.38;56.22;99523.41;4985457;28;20046;-87
2023/03/23 00:15:59;;;;;;;0.88;0.68;;;;;;;14.27;56.67;99517.22;4993215;28;20089;-88
2023/03/23 00:18:26;;;;;;;1.58;0.93;;;;;;;14.34;56.87;99539.72;4986652;28;20034;-92
2023/03/23 00:20:56;;;;;;;3.33;0.90;;;;;;;14.21;56.75;99521.16;5004693;28;20097;-91
2023/03/23 00:23:25;;;;;;;2.30;1.00;;;;;;;14.17;56.76;99487.75;4999573;28;20046;-86
2023/03/23 00:25:56;;;;;;;1.50;0.95;;;;;;;14.32;56.71;99515.06;4982346;28;20049;-93
2023/03/23 00:28:27;;;;;;;1.20;0.80;;;;;;;14.49;56.64;99535.06;4965245;28;20042;-95
2023/03/23 00:31:10;;;;;;;1.70;0.80;;;;;;;14.58;56.60;99545.91;5002311;28;20038;-85
2023/03/23 00:33:40;;;;;;;1.80;1.00;;;;;;;14.60;56.52;99551.09;4984035;28;20034;-92
2023/03/23 00:36:08;;;;;;;1.25;0.73;;;;;;;14.39;56.60;99511.78;4986567;28;20131;-86
2023/03/23 00:38:34;;;;;;;3.22;0.95;;;;;;;14.29;56.89;99491.31;4986718;28;20043;-90
2023/03/23 00:41:03;;;;;;;1.88;0.90;;;;;;;14.53;57.42;99552.53;4996089;28;20042;-92
2023/03/23 00:43:35;;;;;;;2.17;0.80;;;;;;;14.52;57.31;99540.16;4974712;28;20051;-88
2023/03/23 00:46:09;;;;;;;2.22;1.00;;;;;;;14.38;57.51;99510.09;4983703;28;20123;-88
2023/03/23 00:48:44;;;;;;;0.95;0.73;;;;;;;14.50;57.39;99526.13;4999279;28;20042;-91
2023/03/23 00:51:11;;;;;;;0.73;0.52;;;;;;;13.97;57.85;99441.38;4996226;28;20044;-92
2023/03/23 00:53:37;;;;;;;1.98;0.77;;;;;;;13.97;57.81;99430.72;4983068;28;20496;-90
2023/03/23 00:56:04;;;;;;;1.27;0.70;;;;;;;14.48;57.96;99520.09;4980139;28;20467;-89
2023/03/23 00:58:31;;;;;;;1.70;0.70;;;;;;;14.29;58.44;99492.16;4982352;28;20060;-88
2023/03/23 01:00:59;;;;;;;1.10;0.95;;;;;;;14.29;58.63;99483.31;4989455;28;20053;-91
2023/03/23 01:03:25;;;;;;;2.63;1.00;;;;;;;14.22;58.40;99477.59;5012250;28;20026;-92
2023/03/23 01:05:52;;;;;;;1.45;0.80;;;;;;;14.23;58.58;99481.13;4994423;28;20468;-93
2023/03/23 01:08:21;;;;;;;1.75;0.85;;;;;;;14.43;58.61;99517.78;4999581;28;20038;-90
2023/03/23 01:10:50;;;;;;;1.10;0.80;;;;;;;14.37;59.08;99524.38;4982568;28;20038;-89
2023/03/23 01:13:16;;;;;;;0.75;0.63;;;;;;;14.21;59.14;99499.88;4982584;28;20053;-93
2023/03/23 01:15:42;;;;;;;1.98;0.95;;;;;;;14.30;59.26;99520.50;4979285;28;20042;-90
2023/03/23 01:18:08;;;;;;;1.52;0.90;;;;;;;14.28;59.30;99510.91;4995965;28;20395;-91
2023/03/23 01:20:39;;;;;;;3.05;0.77;;;;;;;14.28;59.16;99494.94;4999712;28;20049;-89
2023/03/23 01:23:04;;;;;;;1.30;0.60;;;;;;;14.20;59.06;99482.19;4981286;28;20066;-92
2023/03/23 01:25:35;;;;;;;0.98;0.70;;;;;;;14.30;58.98;99501.84;4981558;28;20043;-89
2023/03/23 01:28:03;;;;;;;1.85;1.00;;;;;;;14.19;58.71;99479.66;5005040;28;20133;-88
2023/03/23 01:30:29;;;;;;;1.77;0.80;;;;;;;14.17;58.97;99476.25;4995071;28;20038;-91
2023/03/23 01:32:55;;;;;;;1.30;0.82;;;;;;;14.18;59.31;99496.59;4991737;28;20064;-90
2023/03/23 01:35:23;;;;;;;2.20;1.00;;;;;;;14.21;59.29;99507.00;4999780;28;20030;-87
2023/03/23 01:37:50;;;;;;;1.17;0.90;;;;;;;14.19;59.85;99504.47;5024696;28;20039;-85
2023/03/23 01:40:16;;;;;;;1.50;0.68;;;;;;;14.14;59.92;99501.31;5000308;28;20045;-86
2023/03/23 01:42:41;;;;;;;1.40;0.80;;;;;;;14.14;59.76;99497.81;4999334;28;20102;-86
2023/03/23 01:45:34;;;;;;;3.70;0.98;;;;;;;14.16;60.11;99487.91;5017605;28;20102;-86
2023/03/23 01:48:23;;;;;;;2.05;0.82;;;;;;;14.10;60.14;99475.88;5013888;28;20065;-88
2023/03/23 01:50:55;;;;;;;2.80;0.73;;;;;;;14.08;60.33;99468.97;5014928;28;20027;-85
2023/03/23 01:53:24;;;;;;;1.70;0.80;;;;;;;13.97;60.30;99467.13;5017294;28;20143;-94
2023/03/23 01:55:53;;;;;;;2.88;1.35;;;;;;;14.04;60.31;99481.66;5004602;28;20471;-93
2023/03/23 01:58:25;;;;;;;2.55;0.70;;;;;;;14.15;59.55;99475.53;5003625;28;20053;-94
2023/03/23 02:00:56;;;;;;;2.03;0.73;;;;;;;14.17;59.55;99501.06;4989838;28;20052;-92
2023/03/23 02:03:23;;;;;;;3.10;1.50;;;;;;;14.16;59.68;99496.72;4982124;28;20074;-92
2023/03/23 02:05:49;;;;;;;1.23;0.70;;;;;;;14.19;59.49;99483.16;4982763;28;20085;-87
2023/03/23 02:08:18;;;;;;;2.90;0.80;;;;;;;14.17;59.04;99490.41;4988066;28;20034;-89
2023/03/23 02:10:43;;;;;;;2.40;1.10;;;;;;;14.12;59.11;99489.09;5002352;28;20074;-93
2023/03/23 02:13:12;;;;;;;2.83;0.90;;;;;;;14.20;59.13;99506.16;4981357;28;20101;-92
2023/03/23 02:15:41;;;;;;;2.92;0.93;;;;;;;14.20;59.19;99511.47;5011338;28;20037;-89
2023/03/23 02:18:38;;;;;;;0.80;0.70;;;;;;;14.19;58.90;99499.13;4988882;28;20046;-94
2023/03/23 02:21:31;;;;;;;1.42;0.70;;;;;;;14.14;58.73;99479.16;4984892;28;20066;-86
2023/03/23 02:24:10;;;;;;;0.75;0.70;;;;;;;14.24;57.88;99504.97;4989253;28;20042;-90
2023/03/23 02:26:55;;;;;;;1.00;0.60;;;;;;;14.24;58.05;99485.47;4989361;28;20065;-92
2023/03/23 02:29:51;;;;;;;1.17;0.77;;;;;;;14.28;58.44;99492.28;4986539;28;20050;-93
2023/03/23 02:32:39;;;;;;;1.85;0.60;;;;;;;14.27;58.18;99480.78;5007284;28;20093;-86
2023/03/23 02:35:19;;;;;;;1.17;0.60;;;;;;;14.21;58.72;99472.41;4996355;28;20094;-86
2023/03/23 02:37:58;;;;;;;1.17;0.70;;;;;;;14.15;59.51;99457.75;5013221;28;20065;-89
2023/03/23 02:40:30;;;;;;;1.25;0.70;;;;;;;14.20;61.15;99468.88;4990010;28;20049;-89
2023/03/23 02:42:58;;;;;;;2.25;0.98;;;;;;;14.20;63.39;99486.66;4990873;28;20053;-88
2023/03/23 02:45:29;;;;;;;0.82;0.50;;;;;;;14.15;64.04;99487.03;4974836;28;20069;-91
2023/03/23 02:47:55;;;;;;;2.08;0.77;;;;;;;13.92;68.48;99469.28;4985499;28;20034;-91
2023/03/23 02:50:28;;;;;;;0.95;0.73;;;;;;;13.85;70.82;99457.41;4985871;28;20069;-90
2023/03/23 02:52:59;;;;;;;1.42;0.75;;;;;;;13.85;71.97;99458.25;5001009;28;20041;-89
2023/03/23 02:55:28;;;;;;;1.58;0.70;;;;;;;13.56;74.79;99420.53;4986124;28;20046;-93
2023/03/23 02:57:56;;;;;;;1.00;0.60;;;;;;;13.82;79.22;99474.47;4988948;28;20047;-90
2023/03/23 03:00:23;;;;;;;2.65;1.25;;;;;;;13.40;83.49;99433.25;5009082;28;20106;-91
2023/03/23 03:02:53;;;;;;;1.02;0.70;;;;;;;13.42;85.20;99478.34;4990715;28;20062;-93
2023/03/23 03:05:51;;;;;;;1.63;0.98;;;;;;;13.26;86.55;99471.50;5003617;28;20054;-91
2023/03/23 03:08:28;;;;;;;2.40;1.00;;;;;;;13.19;88.96;99470.25;4998228;28;20123;-92
2023/03/23 03:11:02;;;;;;;1.80;0.80;;;;;;;13.11;89.41;99461.94;4991662;28;20050;-88
2023/03/23 03:13:52;;;;;;;1.75;1.00;;;;;;;13.08;91.95;99462.16;4991870;28;20138;-90
2023/03/23 03:16:49;;;;;;;1.50;0.88;;;;;;;13.08;93.11;99461.31;4995362;28;20097;-90
2023/03/23 03:19:43;;;;;;;1.10;0.98;;;;;;;13.07;92.96;99454.28;4986519;28;20093;-92
2023/03/23 03:22:09;;;;;;;2.05;1.08;;;;;;;13.08;93.77;99453.34;4997822;28;20046;-93
2023/03/23 03:24:38;;;;;;;1.45;0.90;;;;;;;12.98;95.04;99442.53;5015306;28;20094;-90
2023/03/23 03:27:14;;;;;;;1.38;1.00;;;;;;;12.97;97.42;99460.28;4981158;28;20125;-90
2023/03/23 03:29:43;;;;;;;1.60;0.90;;;;;;;12.94;97.54;99459.63;4998288;28;20042;-91
2023/03/23 03:32:16;;;;;;;3.22;1.10;;;;;;;12.88;97.74;99452.97;4999117;28;20046;-92
2023/03/23 03:34:43;;;;;;;1.52;1.05;;;;;;;12.89;99.06;99459.13;4982861;28;20042;-91
2023/03/23 03:37:11;;;;;;;2.10;1.05;;;;;;;12.93;100.00;99455.28;4983283;28;20406;-90
2023/03/23 03:39:38;;;;;;;2.55;1.13;;;;;;;12.69;98.23;99418.03;4984589;28;20098;-92
2023/03/23 03:42:06;;;;;;;2.90;1.10;;;;;;;12.91;98.40;99458.03;4997997;28;20483;-91
2023/03/23 03:44:33;;;;;;;3.22;1.15;;;;;;;12.88;98.85;99465.41;4982952;28;20053;-92
2023/03/23 03:47:00;;;;;;;2.40;1.08;;;;;;;12.70;99.67;99441.00;4966181;28;20046;-90
2023/03/23 03:49:26;;;;;;;2.53;1.00;;;;;;;12.81;100.00;99467.63;4982344;28;20042;-91
2023/03/23 03:51:52;;;;;;;1.23;0.95;;;;;;;12.74;100.00;99462.88;4969014;28;20038;-90
2023/03/23 03:54:18;;;;;;;4.13;1.27;;;;;;;12.73;100.00;99464.69;5012760;28;20493;-90
2023/03/23 03:56:45;;;;;;;3.55;1.20;;;;;;;12.75;100.00;99481.34;4978108;28;20042;-89
2023/03/23 03:59:12;;;;;;;3.08;1.30;;;;;;;12.70;100.00;99464.91;4980932;28;20049;-89
2023/03/23 04:01:38;;;;;;;1.95;1.30;;;;;;;12.78;100.00;99461.69;4985527;28;20042;-89
2023/03/23 04:04:06;;;;;;;2.58;1.33;;;;;;;12.67;100.00;99458.94;4999346;28;20046;-88
2023/03/23 04:06:32;;;;;;;2.00;1.27;;;;;;;12.55;100.00;99468.63;4984799;28;20471;-90
2023/03/23 04:08:58;;;;;;;2.63;1.42;;;;;;;12.34;100.00;99467.44;4983727;28;20076;-89
2023/03/23 04:11:25;;;;;;;2.22;1.70;;;;;;;12.16;100.00;99457.13;4982332;28;20050;-92
2023/03/23 04:13:51;;;;;;;3.28;1.50;;;;;;;12.18;100.00;99457.88;4964956;28;20042;-90
2023/03/23 04:16:17;;;;;;;1.65;1.23;;;;;;;12.24;100.00;99465.44;4984239;28;20156;-89
2023/03/23 04:18:44;;;;;;;3.20;1.52;;;;;;;12.25;100.00;99469.81;4977477;28;20545;-88
2023/03/23 04:21:10;;;;;;;1.77;1.40;;;;;;;12.11;100.00;99443.34;4987865;28;20058;-89
2023/03/23 04:23:36;;;;;;;3.67;1.40;;;;;;;12.25;100.00;99464.50;5010594;28;20042;-89
2023/03/23 04:26:04;;;;;;;2.97;1.58;;;;;;;12.29;100.00;99473.91;4986696;28;20050;-86
2023/03/23 04:28:33;;;;;;;2.00;1.45;;;;;;;12.16;100.00;99465.09;4992280;28;20117;-85
2023/03/23 04:31:00;;;;;;;3.10;1.90;;;;;;;12.23;100.00;99482.31;5011166;28;20318;-89
2023/03/23 04:33:28;;;;;;;2.17;1.58;;;;;;;12.23;100.00;99487.63;4996656;28;20053;-89
2023/03/23 04:35:56;;;;;;;3.10;1.58;;;;;;;12.30;100.00;99491.53;5000272;28;20046;-89
2023/03/23 04:38:23;;;;;;;2.85;1.42;;;;;;;12.20;100.00;99479.88;4980384;28;20053;-90
2023/03/23 04:40:51;;;;;;;2.22;1.60;;;;;;;12.25;100.00;99483.06;4980720;28;20058;-92
2023/03/23 04:43:21;;;;;;;3.90;1.60;;;;;;;12.18;100.00;99480.94;4974064;28;20047;-91
2023/03/23 04:45:55;;;;;;;2.60;1.83;;;;;;;12.19;100.00;99478.16;4991714;28;20054;-89
2023/03/23 04:48:26;;;;;;;2.55;1.35;;;;;;;12.27;100.00;99494.44;5005519;28;20053;-89
2023/03/23 04:50:53;;;;;;;1.50;1.38;;;;;;;12.25;100.00;99492.84;4996062;28;20034;-89
2023/03/23 04:53:19;;;;;;;2.72;1.40;;;;;;;12.20;100.00;99484.31;4996663;28;20034;-90
2023/03/23 04:55:47;;;;;;;3.33;1.52;;;;;;;12.29;100.00;99496.97;4994849;28;20045;-89
2023/03/23 04:58:15;;;;;;;2.25;1.50;;;;;;;12.23;100.00;99492.94;4990744;28;20114;-90
2023/03/23 05:00:43;;;;;;;4.57;1.77;;;;;;;12.28;100.00;99490.81;5010829;28;20070;-88
2023/03/23 05:03:10;;;;;;;2.40;2.15;;;;;;;12.25;100.00;99480.41;4988391;28;20050;-91
2023/03/23 05:05:37;;;;;;;2.47;1.50;;;;;;;12.24;100.00;99470.75;5000550;28;20069;-90
2023/03/23 05:08:05;;;;;;;2.95;1.50;;;;;;;12.18;100.00;99459.69;5006189;28;20191;-89
2023/03/23 05:10:31;;;;;;;2.85;1.55;;;;;;;12.33;100.00;99477.22;5013660;28;20061;-89
2023/03/23 05:12:58;;;;;;;2.38;1.55;;;;;;;12.34;100.00;99478.91;5028665;28;20053;-89
2023/03/23 05:15:24;;;;;;;6.75;1.50;;;;;;;12.34;100.00;99476.25;5011230;28;20050;-89
2023/03/23 05:17:55;;;;;;;1.88;1.42;;;;;;;12.41;100.00;99490.84;4991016;28;20109;-88
2023/03/23 05:20:24;;;;;;;2.13;1.27;;;;;;;12.23;100.00;99461.09;4999890;28;20037;-88
2023/03/23 05:22:51;;;;;;;1.75;1.42;;;;;;;12.00;100.00;99411.38;5013926;28;20050;-89
2023/03/23 05:25:20;;;;;;;2.90;1.40;;;;;;;12.44;100.00;99481.78;4994014;28;20065;-91
2023/03/23 05:27:52;;;;;;;2.33;1.27;;;;;;;12.30;100.00;99457.03;4992264;28;20039;-89
2023/03/23 05:30:22;;;;;;;1.83;1.35;;;;;;;11.93;100.00;99386.22;4984409;28;20470;-90
2023/03/23 05:32:51;;;;;;;2.60;1.45;;;;;;;12.29;100.00;99451.84;4991524;28;20042;-89
2023/03/23 05:35:22;;;;;;;2.03;1.17;;;;;;;12.53;100.00;99491.78;4989483;28;20054;-89
2023/03/23 05:37:53;;;;;;;2.45;1.40;;;;;;;12.08;100.00;99421.47;4993015;28;20038;-88
2023/03/23 05:40:24;;;;;;;3.63;1.50;;;;;;;12.21;100.00;99444.41;4993499;28;20031;-92
2023/03/23 05:42:51;;;;;;;5.22;1.50;;;;;;;12.18;100.00;99452.56;4987523;28;20129;-89
2023/03/23 05:45:22;;;;;;;2.25;1.63;;;;;;;12.33;100.00;99463.09;4991239;28;20282;-89
2023/03/23 05:47:49;;;;;;;3.72;1.55;;;;;;;12.27;100.00;99459.09;4998580;28;20065;-90
2023/03/23 05:50:16;;;;;;;3.03;1.25;;;;;;;12.23;100.00;99453.13;4988859;28;20041;-88
2023/03/23 05:52:43;;;;;;;3.50;1.73;;;;;;;12.58;100.00;99500.28;4984177;28;20074;-89
2023/03/23 05:55:10;;;;;;;2.38;1.48;;;;;;;12.18;100.00;99426.03;4981132;28;20046;-92
2023/03/23 05:57:35;;;;;;;2.95;1.55;;;;;;;12.63;100.00;99503.47;4984815;28;20065;-90
2023/03/23 06:00:14;;;;;;;3.75;1.60;;;;;;;12.48;100.00;99488.59;5006587;28;20061;-89
2023/03/23 06:03:07;;;;;;;2.90;1.75;;;;;;;12.61;100.00;99522.16;5004393;28;20114;-90
2023/03/23 06:05:38;;;;;;;2.92;1.73;;;;;;;12.51;100.00;99509.63;5004150;28;20091;-90
2023/03/23 06:08:25;;;;;;;5.78;1.80;;;;;;;12.48;100.00;99504.53;5010576;28;20034;-91
2023/03/23 06:10:51;;;;;;;2.55;1.60;;;;;;;12.44;100.00;99489.75;5014421;28;20073;-90
2023/03/23 06:13:17;;;;;;;1.95;1.40;;;;;;;12.21;100.00;99454.19;4994821;28;20042;-89
2023/03/23 06:15:43;;;;;;;2.33;1.52;;;;;;;12.49;100.00;99501.75;4997361;28;20160;-90
2023/03/23 06:18:08;;;;;;;1.88;1.42;;;;;;;12.58;100.00;99522.41;5076821;23;20035;-91
2023/03/23 06:20:35;;;;;;;4.35;1.70;;;;;;;12.59;100.00;99518.75;4972250;28;20042;-90
2023/03/23 06:23:03;;;;;;;3.58;1.90;;;;;;;12.66;100.00;99535.13;4996876;28;20098;-90
2023/03/23 06:25:32;;;;;;;4.93;1.80;;;;;;;12.67;100.00;99543.94;4980613;28;20070;-87
2023/03/23 06:27:59;;;;;;;2.63;1.50;;;;;;;12.63;100.00;99530.03;4991572;28;20031;-89
2023/03/23 06:30:28;;;;;;;3.08;2.05;;;;;;;12.60;100.00;99522.25;4965314;28;20053;-89
2023/03/23 06:32:57;;;;;;;2.67;1.80;;;;;;;12.61;100.00;99516.00;5014310;28;20031;-89
2023/03/23 06:35:23;;;;;;;2.75;1.80;;;;;;;12.80;100.00;99537.66;4995995;28;20039;-91
2023/03/23 06:37:51;;;;;;;2.63;1.60;;;;;;;12.75;100.00;99531.00;4975960;29;20039;-91
2023/03/23 06:40:18;;;;;;;3.22;1.40;;;;;;;12.73;100.00;99533.75;4978770;28;20046;-90
2023/03/23 06:42:48;;;;;;;3.88;1.80;;;;;;;12.79;100.00;99538.63;4993787;28;20077;-89
2023/03/23 06:45:14;;;;;;;4.80;1.80;;;;;;;12.51;100.00;99491.88;4962865;28;20031;-88
2023/03/23 06:47:41;;;;;;;1.83;1.50;;;;;;;12.53;100.00;99491.78;4981913;28;20494;-90
2023/03/23 06:50:08;;;;;;;4.55;2.38;;;;;;;12.88;100.00;99543.31;4979195;28;20047;-89
2023/03/23 06:52:34;;;;;;;4.03;1.83;;;;;;;12.83;100.00;99561.38;5003210;28;20034;-91
2023/03/23 06:55:04;;;;;;;3.35;1.80;;;;;;;12.37;100.00;99484.03;4995026;28;20078;-88
2023/03/23 06:57:29;;;;;;;3.05;1.77;;;;;;;12.50;100.00;99511.44;4994097;28;20042;-91
2023/03/23 06:59:56;;;;;;;2.88;1.80;;;;;;;12.79;100.00;99554.56;4967361;28;20062;-89
2023/03/23 07:02:23;;;;;;;3.08;1.90;;;;;;;12.84;100.00;99554.25;4981514;28;20050;-89
2023/03/23 07:04:55;;;;;;;3.25;1.90;;;;;;;12.79;100.00;99521.84;4982742;28;20062;-90
2023/03/23 07:07:21;;;;;;;2.38;1.60;;;;;;;12.80;100.00;99532.34;4958362;28;20054;-89
2023/03/23 07:09:49;;;;;;;2.55;1.80;;;;;;;12.81;100.00;99528.75;4954963;29;20066;-89
2023/03/23 07:12:15;;;;;;;2.28;1.75;;;;;;;12.85;100.00;99534.69;4979301;28;20074;-89
2023/03/23 07:14:41;;;;;;;3.50;1.85;;;;;;;12.91;100.00;99551.06;4975480;28;20070;-90
2023/03/23 07:17:07;;;;;;;3.85;1.88;;;;;;;12.88;100.00;99550.44;4976969;28;20170;-91
2023/03/23 07:19:41;;;;;;;3.38;1.70;;;;;;;12.73;100.00;99535.56;4959942;28;20122;-92
2023/03/23 07:22:07;;;;;;;2.95;1.58;;;;;;;12.74;100.00;99551.41;4960469;28;20058;-89
2023/03/23 07:24:34;;;;;;;2.70;1.90;;;;;;;12.66;100.00;99551.06;5009099;28;20102;-90
2023/03/23 07:27:02;;;;;;;4.20;2.30;;;;;;;12.73;100.00;99578.91;4986014;28;20074;-90
2023/03/23 07:29:28;;;;;;;3.85;2.28;;;;;;;12.24;100.00;99497.28;4956497;28;20043;-90
2023/03/23 07:31:57;;;;;;;4.13;2.20;;;;;;;12.47;100.00;99534.69;4983499;28;20078;-91
2023/03/23 07:34:23;;;;;;;3.00;1.92;;;;;;;12.64;100.00;99572.41;4948192;28;20058;-89
2023/03/23 07:36:49;;;;;;;3.58;2.20;;;;;;;12.45;100.00;99541.91;4979598;28;20051;-89
2023/03/23 07:39:16;;;;;;;4.45;2.08;;;;;;;12.55;100.00;99570.41;4959710;28;20046;-89
2023/03/23 07:41:42;;;;;;;4.05;2.35;;;;;;;12.41;100.00;99545.75;4978805;28;20472;-88
2023/03/23 07:44:08;;;;;;;3.28;1.90;;;;;;;12.53;100.00;99563.50;4959898;28;20054;-90
2023/03/23 07:46:35;;;;;;;3.40;2.10;;;;;;;12.55;100.00;99554.47;4976985;28;20070;-88
2023/03/23 07:49:05;;;;;;;3.17;2.35;;;;;;;12.59;100.00;99563.09;4953776;28;20050;-88
2023/03/23 07:51:32;;;;;;;4.95;2.95;;;;;;;12.47;100.00;99556.78;4974749;28;20484;-89
2023/03/23 07:53:58;;;;;;;3.75;2.22;;;;;;;12.33;100.00;99526.81;4975443;28;20066;-88
2023/03/23 07:56:23;;;;;;;3.35;2.40;;;;;;;12.60;100.00;99562.94;4973470;28;20047;-90
2023/03/23 07:58:51;;;;;;;14.07;8.65;;;;;;;12.75;100.00;99589.44;4968153;28;20155;-92
2023/03/23 08:01:23;;;;;;;4.18;2.30;;;;;;;12.71;100.00;99579.97;4937260;28;20039;-90
2023/03/23 08:03:51;;;;;;;3.65;2.05;;;;;;;12.80;100.00;99592.63;4971856;28;20164;-91
2023/03/23 08:06:23;;;;;;;2.65;1.90;;;;;;;12.66;100.00;99567.00;4989044;28;20054;-90
2023/03/23 08:08:50;;;;;;;3.58;2.22;;;;;;;12.89;100.00;99595.50;4979373;28;20042;-90
2023/03/23 08:11:16;;;;;;;2.97;2.10;;;;;;;12.56;100.00;99542.03;4975154;28;20038;-90
2023/03/23 08:13:43;;;;;;;1.83;1.70;;;;;;;12.85;100.00;99586.03;4974475;28;20054;-90
2023/03/23 08:16:10;;;;;;;4.18;1.98;;;;;;;12.89;100.00;99600.81;4974748;28;20054;-92
2023/03/23 08:18:39;;;;;;;3.35;2.10;;;;;;;12.93;100.00;99614.72;4996209;28;20126;-88
2023/03/23 08:21:08;;;;;;;3.28;1.85;;;;;;;12.88;100.00;99607.09;4961966;28;20105;-89
2023/03/23 08:23:37;;;;;;;2.85;1.60;;;;;;;12.51;100.00;99557.44;4975318;28;20086;-89
2023/03/23 08:26:07;;;;;;;6.80;2.55;;;;;;;12.82;100.00;99586.25;4975307;28;20110;-91
2023/03/23 08:28:35;;;;;;;2.08;1.55;;;;;;;12.88;100.00;99595.59;4968779;28;20101;-89
2023/03/23 08:31:10;;;;;;;3.70;1.92;;;;;;;12.82;100.00;99596.88;4963086;28;20037;-88
2023/03/23 08:33:37;;;;;;;1.65;1.50;;;;;;;12.70;100.00;99581.78;4956332;28;20137;-88
2023/03/23 08:36:05;;;;;;;2.95;1.80;;;;;;;12.89;100.00;99618.56;4961549;28;20034;-88
2023/03/23 08:38:32;;;;;;;3.78;1.70;;;;;;;12.79;100.00;99609.50;4976902;28;20042;-91
2023/03/23 08:41:04;;;;;;;2.90;1.70;;;;;;;12.92;100.00;99618.34;4961727;28;20050;-91
2023/03/23 08:43:32;;;;;;;4.82;1.80;;;;;;;12.81;100.00;99600.47;4957400;28;20398;-89
2023/03/23 08:45:58;;;;;;;2.53;1.73;;;;;;;13.08;100.00;99634.06;4972689;28;20043;-89
2023/03/23 08:48:25;;;;;;;2.90;1.70;;;;;;;13.11;100.00;99644.50;4965013;28;20534;-89
2023/03/23 08:50:51;;;;;;;1.95;1.50;;;;;;;13.11;100.00;99631.19;4971678;28;20098;-91
2023/03/23 08:53:20;;;;;;;2.53;1.60;;;;;;;13.19;100.00;99643.06;4993055;28;20109;-90
2023/03/23 08:55:49;;;;;;;2.85;2.00;;;;;;;13.09;100.00;99611.84;4959182;28;20070;-89
2023/03/23 08:58:14;;;;;;;2.13;1.83;;;;;;;13.27;100.00;99632.72;4962732;28;20031;-90
2023/03/23 09:00:40;;;;;;;3.15;1.60;;;;;;;13.24;100.00;99608.16;4960503;29;20042;-89
2023/03/23 09:03:06;;;;;;;1.90;1.70;;;;;;;13.43;100.00;99619.19;4965367;28;20293;-90
2023/03/23 09:06:00;;;;;;;4.10;1.50;;;;;;;13.41;100.00;99604.31;4983309;28;20023;-90
2023/03/23 09:08:31;;;;;;;2.80;1.67;;;;;;;13.41;100.00;99585.69;4975731;28;20102;-90
2023/03/23 09:11:00;;;;;;;;;;;;;;;13.74;100.00;99622.31;4957974;28;20055;-93
2023/03/23 09:13:26;;;;;;;2.42;1.70;;;;;;;13.82;100.00;99627.97;4964828;28;20347;-89
2023/03/23 09:15:52;;;;;;;2.28;1.55;;;;;;;13.83;100.00;99606.56;4976489;28;20051;-91
2023/03/23 09:18:21;;;;;;;3.38;1.88;;;;;;;13.87;100.00;99599.19;4980248;28;20054;-88
2023/03/23 09:20:51;;;;;;;5.55;2.50;;;;;;;13.94;100.00;99600.44;4984583;28;20379;-91
2023/03/23 09:23:20;;;;;;;2.92;2.00;;;;;;;13.70;100.00;99545.38;4989118;28;20045;-88
2023/03/23 09:25:47;;;;;;;2.30;1.95;;;;;;;14.07;100.00;99595.91;4995901;28;20047;-88
2023/03/23 09:28:14;;;;;;;4.00;2.33;;;;;;;14.08;100.00;99568.31;5001638;28;20035;-91
2023/03/23 09:30:40;;;;;;;1.80;1.50;;;;;;;14.26;100.00;99582.06;4968310;28;20102;-90
2023/03/23 09:33:07;;;;;;;1.80;1.60;;;;;;;14.58;100.00;99627.63;4962364;28;20069;-91
2023/03/23 09:35:35;;;;;;;4.90;1.80;;;;;;;14.67;100.00;99626.94;4979676;28;20132;-90
2023/03/23 09:38:03;;;;;;;2.10;1.80;;;;;;;14.36;100.00;99564.44;4979879;28;20038;-90
2023/03/23 09:40:41;;;;;;;2.47;1.85;;;;;;;14.74;100.00;99625.50;4973770;28;20035;-89
2023/03/23 09:43:27;;;;;;;5.47;2.13;;;;;;;15.01;100.00;99631.38;4961021;28;20075;-92
2023/03/23 09:46:22;;;;;;;5.40;2.72;;;;;;;15.05;100.00;99632.84;4966444;28;20060;-91
2023/03/23 09:49:10;;;;;;;2.28;1.70;;;;;;;15.19;98.75;99626.44;4958017;28;20063;-91
2023/03/23 09:51:57;;;;;;;3.78;1.50;;;;;;;15.50;97.07;99614.19;4981517;28;20035;-92
2023/03/23 09:54:36;;;;;;;2.30;1.70;;;;;;;15.67;92.50;99628.91;4982137;28;20050;-91
2023/03/23 09:57:03;;;;;;;1.95;1.40;;;;;;;15.64;91.12;99623.78;4977379;28;20054;-89
2023/03/23 09:59:53;;;;;;;2.55;1.60;;;;;;;15.71;94.71;99620.53;4993559;28;20042;-90
2023/03/23 10:02:36;;;;;;;2.05;1.63;;;;;;;15.78;95.00;99640.41;4996586;28;20042;-89
2023/03/23 10:05:34;;;;;;;2.97;1.58;;;;;;;15.54;93.70;99620.16;4993726;28;20037;-90
2023/03/23 10:08:02;;;;;;;1.85;1.45;;;;;;;15.34;97.92;99637.72;4989394;28;20126;-90
2023/03/23 10:10:52;;;;;;;3.50;1.60;;;;;;;15.21;100.00;99642.31;5007035;28;20046;-90
2023/03/23 10:13:47;;;;;;;3.90;1.60;;;;;;;15.14;100.00;99633.09;4982868;28;20046;-90
2023/03/23 10:16:26;;;;;;;3.05;1.70;;;;;;;14.63;100.00;99649.47;4977394;28;20084;-90
2023/03/23 10:19:09;;;;;;;2.17;1.52;;;;;;;14.42;100.00;99635.09;4991828;28;20188;-89
2023/03/23 10:21:40;;;;;;;2.78;2.35;;;;;;;14.17;100.00;99606.72;4986940;28;20047;-88
2023/03/23 10:24:10;;;;;;;3.10;1.48;;;;;;;13.99;100.00;99603.63;4989700;28;20047;-89
2023/03/23 10:26:48;;;;;;;3.53;1.50;;;;;;;14.17;100.00;99607.56;4989315;28;20046;-89
2023/03/23 10:29:36;;;;;;;2.35;1.40;;;;;;;14.53;100.00;99680.41;4992831;28;20058;-92
2023/03/23 10:32:19;;;;;;;2.08;1.30;;;;;;;14.38;100.00;99669.91;4972117;28;20087;-89
2023/03/23 10:35:11;;;;;;;1.50;1.20;;;;;;;14.21;100.00;99630.34;4992173;28;20047;-89
2023/03/23 10:38:01;;;;;;;2.03;1.25;;;;;;;14.46;100.00;99674.72;4986504;28;20045;-89
2023/03/23 10:40:30;;;;;;;1.35;1.13;;;;;;;14.41;100.00;99665.34;4970933;28;20045;-90
2023/03/23 10:43:01;;;;;;;3.22;1.10;;;;;;;14.07;100.00;99617.22;4966144;28;20027;-88
2023/03/23 10:45:35;;;;;;;2.10;1.00;;;;;;;14.50;100.00;99656.66;4972351;28;20049;-91
2023/03/23 10:48:40;;;;;;;1.38;0.88;;;;;;;14.50;98.67;99652.19;4982349;28;20079;-90
2023/03/23 10:51:16;;;;;;;1.80;1.17;;;;;;;14.44;98.47;99643.81;4966811;28;20154;-91
2023/03/23 10:53:49;;;;;;;2.15;1.40;;;;;;;14.61;99.39;99660.22;4969338;29;20039;-91
2023/03/23 10:56:24;;;;;;;1.23;1.10;;;;;;;14.54;100.00;99664.31;4957942;28;20047;-89
2023/03/23 10:58:51;;;;;;;2.22;1.55;;;;;;;14.53;98.50;99669.75;4990350;28;20114;-89
2023/03/23 11:01:37;;;;;;;3.72;1.40;;;;;;;14.48;98.34;99631.97;4956300;28;20058;-90
2023/03/23 11:04:37;;;;;;;1.67;1.30;;;;;;;14.74;94.67;99669.00;4972360;28;20042;-88
2023/03/23 11:07:04;;;;;;;3.70;1.67;;;;;;;14.54;96.77;99674.97;4990430;28;20066;-86
2023/03/23 11:09:54;;;;;;;2.30;1.58;;;;;;;14.10;100.00;99622.31;4984851;28;20039;-91
2023/03/23 11:12:22;;;;;;;2.00;1.52;;;;;;;14.15;100.00;99617.50;4990961;28;20038;-90
2023/03/23 11:14:50;;;;;;;3.53;2.20;;;;;;;14.23;100.00;99620.44;4988482;28;20054;-90
2023/03/23 11:17:24;;;;;;;2.08;1.60;;;;;;;14.22;100.00;99632.03;4981685;28;20043;-89
2023/03/23 11:19:57;;;;;;;4.07;2.60;;;;;;;14.25;100.00;99617.66;4972817;28;20072;-89
2023/03/23 11:22:28;;;;;;;4.22;3.55;;;;;;;14.59;100.00;99682.63;4991196;28;20049;-90
2023/03/23 11:25:00;;;;;;;3.63;2.50;;;;;;;14.49;100.00;99663.78;4985454;28;20030;-89
2023/03/23 11:27:28;;;;;;;3.65;2.00;;;;;;;14.56;100.00;99653.53;4980197;28;20035;-89
2023/03/23 11:29:55;;;;;;;2.70;1.63;;;;;;;14.89;100.00;99674.13;4991693;28;20043;-89
2023/03/23 11:32:27;;;;;;;4.53;1.80;;;;;;;14.86;100.00;99643.22;4978384;28;20049;-89
2023/03/23 11:35:04;;;;;;;3.70;2.92;;;;;;;15.22;96.92;99630.69;4994846;28;20046;-87
2023/03/23 11:37:35;;;;;;;3.72;2.03;;;;;;;15.66;95.67;99643.22;4978898;28;20082;-89
2023/03/23 11:40:15;;;;;;;3.83;1.80;;;;;;;15.59;92.63;99609.97;4976907;28;20043;-89
2023/03/23 11:43:07;;;;;;;3.88;2.20;;;;;;;16.04;91.79;99669.50;4974535;28;20053;-88
2023/03/23 11:45:57;;;;;;;2.20;1.27;;;;;;;15.94;89.52;99642.69;4993591;28;20035;-87
2023/03/23 11:48:57;;;;;;;3.38;1.30;;;;;;;15.72;90.33;99664.94;4993499;28;20070;-91